Time;durP1;ratioP1;P1;durP2;ratioP2;P2;SDS_P1;SDS_P2;PMS_P1;PMS_P2;Temp;Humidity;BMP_temperature;BMP_pressure;BME280_temperature;BME280_humidity;BME280_pressure;Samples;Min_cycle;Max_cycle;Signal;HPM_P1;HPM_P2
2022/01/08 00:00:44;;;;;;;2.95;2.5;;;;;;;0.8;97.4248;94951.04;;;;
2022/01/08 00:01:45;;;;;;;2.95;2.5;;;;;;;0.8;97.4248;94951.04;;;;
2022/01/08 00:02:46;;;;;;;2.95;2.5;;;;;;;0.8;97.4248;94951.04;;;;
2022/01/08 00:03:48;;;;;;;2.95;2.5;;;;;;;0.8;97.4248;94951.04;;;;
2022/01/08 00:04:49;;;;;;;2.95;2.5;;;;;;;0.8;97.4248;94951.04;;;;
2022/01/08 00:05:49;;;;;;;2.95;2.5;;;;;;;0.8;97.4248;94951.04;;;;
2022/01/08 00:06:50;;;;;;;2.95;2.5;;;;;;;0.8;97.4248;94951.04;;;;
2022/01/08 00:07:51;;;;;;;2.95;2.5;;;;;;;0.8;97.4248;94951.04;;;;
2022/01/08 00:08:51;;;;;;;2.95;2.5;;;;;;;0.8;97.4248;94951.04;;;;
2022/01/08 00:09:52;;;;;;;2.95;2.5;;;;;;;0.8;97.4248;94951.04;;;;
2022/01/08 00:10:53;;;;;;;3.099999;2.6;;;;;;;0.6;97.53516;94949.53;;;;
2022/01/08 00:11:54;;;;;;;3.099999;2.6;;;;;;;0.6;97.53516;94949.53;;;;
2022/01/08 00:12:56;;;;;;;3.099999;2.6;;;;;;;0.6;97.53516;94949.53;;;;
2022/01/08 00:13:57;;;;;;;3.099999;2.6;;;;;;;0.6;97.53516;94949.53;;;;
2022/01/08 00:14:57;;;;;;;3.099999;2.6;;;;;;;0.6;97.53516;94949.53;;;;
2022/01/08 00:15:58;;;;;;;3.099999;2.6;;;;;;;0.6;97.53516;94949.53;;;;
2022/01/08 00:16:58;;;;;;;3.099999;2.6;;;;;;;0.6;97.53516;94949.53;;;;
2022/01/08 00:17:59;;;;;;;3.099999;2.6;;;;;;;0.6;97.53516;94949.53;;;;
2022/01/08 00:18:59;;;;;;;3.099999;2.6;;;;;;;0.6;97.53516;94949.53;;;;
2022/01/08 00:20:00;;;;;;;3.099999;2.6;;;;;;;0.6;97.53516;94949.53;;;;
2022/01/08 00:21:01;;;;;;;3.1;2.75;;;;;;;0.2;97.47656;94933.14;;;;
2022/01/08 00:22:02;;;;;;;3.1;2.75;;;;;;;0.2;97.47656;94933.14;;;;
2022/01/08 00:23:03;;;;;;;3.1;2.75;;;;;;;0.2;97.47656;94933.14;;;;
2022/01/08 00:24:04;;;;;;;3.1;2.75;;;;;;;0.2;97.47656;94933.14;;;;
2022/01/08 00:25:05;;;;;;;3.1;2.75;;;;;;;0.2;97.47656;94933.14;;;;
2022/01/08 00:26:06;;;;;;;3.1;2.75;;;;;;;0.2;97.47656;94933.14;;;;
2022/01/08 00:27:07;;;;;;;3.1;2.75;;;;;;;0.2;97.47656;94933.14;;;;
2022/01/08 00:28:07;;;;;;;3.1;2.75;;;;;;;0.2;97.47656;94933.14;;;;
2022/01/08 00:29:08;;;;;;;3.1;2.75;;;;;;;0.2;97.47656;94933.14;;;;
2022/01/08 00:30:08;;;;;;;3.1;2.75;;;;;;;0.2;97.47656;94933.14;;;;
2022/01/08 00:31:10;;;;;;;3.1;2.75;;;;;;;0.2;97.47656;94933.14;;;;
2022/01/08 00:32:10;;;;;;;3.5;2.75;;;;;;;-0.19;97.96875;94912.52;;;;
2022/01/08 00:33:11;;;;;;;3.5;2.75;;;;;;;-0.19;97.96875;94912.52;;;;
2022/01/08 00:34:11;;;;;;;3.5;2.75;;;;;;;-0.19;97.96875;94912.52;;;;
2022/01/08 00:35:12;;;;;;;3.5;2.75;;;;;;;-0.19;97.96875;94912.52;;;;
2022/01/08 00:36:13;;;;;;;3.5;2.75;;;;;;;-0.19;97.96875;94912.52;;;;
2022/01/08 00:37:14;;;;;;;3.5;2.75;;;;;;;-0.19;97.96875;94912.52;;;;
2022/01/08 00:38:14;;;;;;;3.5;2.75;;;;;;;-0.19;97.96875;94912.52;;;;
2022/01/08 00:39:15;;;;;;;3.5;2.75;;;;;;;-0.19;97.96875;94912.52;;;;
2022/01/08 00:40:15;;;;;;;3.5;2.75;;;;;;;-0.19;97.96875;94912.52;;;;
2022/01/08 00:41:16;;;;;;;3.5;2.75;;;;;;;-0.19;97.96875;94912.52;;;;
2022/01/08 00:42:16;;;;;;;3.2;2.7;;;;;;;-0.62;98.03516;94907.92;;;;
2022/01/08 00:43:17;;;;;;;3.2;2.7;;;;;;;-0.62;98.03516;94907.92;;;;
2022/01/08 00:44:18;;;;;;;3.2;2.7;;;;;;;-0.62;98.03516;94907.92;;;;
2022/01/08 00:45:18;;;;;;;3.2;2.7;;;;;;;-0.62;98.03516;94907.92;;;;
2022/01/08 00:46:19;;;;;;;3.2;2.7;;;;;;;-0.62;98.03516;94907.92;;;;
2022/01/08 00:47:20;;;;;;;3.2;2.7;;;;;;;-0.62;98.03516;94907.92;;;;
2022/01/08 00:48:21;;;;;;;3.2;2.7;;;;;;;-0.62;98.03516;94907.92;;;;
2022/01/08 00:49:22;;;;;;;3.2;2.7;;;;;;;-0.62;98.03516;94907.92;;;;
2022/01/08 00:50:22;;;;;;;3.2;2.7;;;;;;;-0.62;98.03516;94907.92;;;;
2022/01/08 00:51:23;;;;;;;3.2;2.7;;;;;;;-0.62;98.03516;94907.92;;;;
2022/01/08 00:52:23;;;;;;;3.2;2.7;;;;;;;-0.62;98.03516;94907.92;;;;
2022/01/08 00:53:24;;;;;;;3.25;2.55;;;;;;;-0.98;98.36621;94886.06;;;;
2022/01/08 00:54:25;;;;;;;3.25;2.55;;;;;;;-0.98;98.36621;94886.06;;;;
2022/01/08 00:55:25;;;;;;;3.25;2.55;;;;;;;-0.98;98.36621;94886.06;;;;
2022/01/08 00:56:26;;;;;;;3.25;2.55;;;;;;;-0.98;98.36621;94886.06;;;;
2022/01/08 00:57:26;;;;;;;3.25;2.55;;;;;;;-0.98;98.36621;94886.06;;;;
2022/01/08 00:58:27;;;;;;;3.25;2.55;;;;;;;-0.98;98.36621;94886.06;;;;
2022/01/08 00:59:28;;;;;;;3.25;2.55;;;;;;;-0.98;98.36621;94886.06;;;;
2022/01/08 01:00:28;;;;;;;3.25;2.55;;;;;;;-0.98;98.36621;94886.06;;;;
2022/01/08 01:01:29;;;;;;;3.25;2.55;;;;;;;-0.98;98.36621;94886.06;;;;
2022/01/08 01:02:29;;;;;;;3.25;2.55;;;;;;;-0.98;98.36621;94886.06;;;;
2022/01/08 01:03:30;;;;;;;4.1;2.8;;;;;;;-1.3;98.69531;94872.6;;;;
2022/01/08 01:04:31;;;;;;;4.1;2.8;;;;;;;-1.3;98.69531;94872.6;;;;
2022/01/08 01:05:31;;;;;;;4.1;2.8;;;;;;;-1.3;98.69531;94872.6;;;;
2022/01/08 01:06:32;;;;;;;4.1;2.8;;;;;;;-1.3;98.69531;94872.6;;;;
2022/01/08 01:07:32;;;;;;;4.1;2.8;;;;;;;-1.3;98.69531;94872.6;;;;
2022/01/08 01:08:33;;;;;;;4.1;2.8;;;;;;;-1.3;98.69531;94872.6;;;;
2022/01/08 01:09:33;;;;;;;4.1;2.8;;;;;;;-1.3;98.69531;94872.6;;;;
2022/01/08 01:10:34;;;;;;;4.1;2.8;;;;;;;-1.3;98.69531;94872.6;;;;
2022/01/08 01:11:34;;;;;;;4.1;2.8;;;;;;;-1.3;98.69531;94872.6;;;;
2022/01/08 01:12:35;;;;;;;4.1;2.8;;;;;;;-1.3;98.69531;94872.6;;;;
2022/01/08 01:13:35;;;;;;;4.1;2.8;;;;;;;-1.3;98.69531;94872.6;;;;
2022/01/08 01:14:36;;;;;;;3.15;2.5;;;;;;;-1.62;99.17871;94852.01;;;;
2022/01/08 01:15:36;;;;;;;3.15;2.5;;;;;;;-1.62;99.17871;94852.01;;;;
2022/01/08 01:16:37;;;;;;;3.15;2.5;;;;;;;-1.62;99.17871;94852.01;;;;
2022/01/08 01:17:37;;;;;;;3.15;2.5;;;;;;;-1.62;99.17871;94852.01;;;;
2022/01/08 01:18:38;;;;;;;3.15;2.5;;;;;;;-1.62;99.17871;94852.01;;;;
2022/01/08 01:19:39;;;;;;;3.15;2.5;;;;;;;-1.62;99.17871;94852.01;;;;
2022/01/08 01:20:40;;;;;;;3.15;2.5;;;;;;;-1.62;99.17871;94852.01;;;;
2022/01/08 01:21:41;;;;;;;3.15;2.5;;;;;;;-1.62;99.17871;94852.01;;;;
2022/01/08 01:22:48;;;;;;;3.15;2.5;;;;;;;-1.62;99.17871;94852.01;;;;
2022/01/08 01:23:51;;;;;;;3.15;2.5;;;;;;;-1.62;99.17871;94852.01;;;;
2022/01/08 01:24:59;;;;;;;3.1;2.55;;;;;;;-1.79;99.3252;94828.35;;;;
2022/01/08 01:26:02;;;;;;;3.1;2.55;;;;;;;-1.79;99.3252;94828.35;;;;
2022/01/08 01:27:30;;;;;;;3.1;2.55;;;;;;;-1.79;99.3252;94828.35;;;;
2022/01/08 01:28:40;;;;;;;3.1;2.55;;;;;;;-1.79;99.3252;94828.35;;;;
2022/01/08 01:29:51;;;;;;;3.1;2.55;;;;;;;-1.79;99.3252;94828.35;;;;
2022/01/08 01:41:06;;;;;;;3.1;2.55;;;;;;;-1.79;99.3252;94828.35;;;;
2022/01/08 01:42:27;;;;;;;3.75;2.7;;;;;;;-2.02;98.97266;94815.97;;;;
2022/01/08 01:46:59;;;;;;;3.75;2.7;;;;;;;-2.02;98.97266;94815.97;;;;
2022/01/08 01:48:00;;;;;;;4.2;2.8;;;;;;;-2.26;98.96777;94798.86;;;;
2022/01/08 01:49:00;;;;;;;4.2;2.8;;;;;;;-2.26;98.96777;94798.86;;;;
2022/01/08 01:50:01;;;;;;;4.2;2.8;;;;;;;-2.26;98.96777;94798.86;;;;
2022/01/08 01:51:04;;;;;;;4.2;2.8;;;;;;;-2.26;98.96777;94798.86;;;;
2022/01/08 01:52:05;;;;;;;4.2;2.8;;;;;;;-2.26;98.96777;94798.86;;;;
2022/01/08 01:53:08;;;;;;;4.2;2.8;;;;;;;-2.26;98.96777;94798.86;;;;
2022/01/08 01:54:08;;;;;;;4.2;2.8;;;;;;;-2.26;98.96777;94798.86;;;;
2022/01/08 01:55:09;;;;;;;4.2;2.8;;;;;;;-2.26;98.96777;94798.86;;;;
2022/01/08 01:56:10;;;;;;;4.2;2.8;;;;;;;-2.26;98.96777;94798.86;;;;
2022/01/08 01:57:12;;;;;;;4.5;3.25;;;;;;;-2.43;99.04102;94788.44;;;;
2022/01/08 01:58:13;;;;;;;4.5;3.25;;;;;;;-2.43;99.04102;94788.44;;;;
2022/01/08 01:59:15;;;;;;;4.5;3.25;;;;;;;-2.43;99.04102;94788.44;;;;
2022/01/08 02:00:15;;;;;;;4.5;3.25;;;;;;;-2.43;99.04102;94788.44;;;;
2022/01/08 02:01:16;;;;;;;4.5;3.25;;;;;;;-2.43;99.04102;94788.44;;;;
2022/01/08 02:02:17;;;;;;;4.5;3.25;;;;;;;-2.43;99.04102;94788.44;;;;
2022/01/08 02:03:17;;;;;;;4.5;3.25;;;;;;;-2.43;99.04102;94788.44;;;;
2022/01/08 02:04:18;;;;;;;4.5;3.25;;;;;;;-2.43;99.04102;94788.44;;;;
2022/01/08 02:05:19;;;;;;;4.5;3.25;;;;;;;-2.43;99.04102;94788.44;;;;
2022/01/08 02:06:20;;;;;;;4.5;3.25;;;;;;;-2.43;99.04102;94788.44;;;;
2022/01/08 02:07:23;;;;;;;5.1;3.2;;;;;;;-2.55;99.00293;94770.47;;;;
2022/01/08 02:08:24;;;;;;;5.1;3.2;;;;;;;-2.55;99.00293;94770.47;;;;
2022/01/08 02:09:25;;;;;;;5.1;3.2;;;;;;;-2.55;99.00293;94770.47;;;;
2022/01/08 02:10:25;;;;;;;5.1;3.2;;;;;;;-2.55;99.00293;94770.47;;;;
2022/01/08 02:11:26;;;;;;;5.1;3.2;;;;;;;-2.55;99.00293;94770.47;;;;
2022/01/08 02:12:27;;;;;;;5.1;3.2;;;;;;;-2.55;99.00293;94770.47;;;;
2022/01/08 02:13:32;;;;;;;5.1;3.2;;;;;;;-2.55;99.00293;94770.47;;;;
2022/01/08 02:14:34;;;;;;;5.1;3.2;;;;;;;-2.55;99.00293;94770.47;;;;
2022/01/08 02:15:39;;;;;;;5.1;3.2;;;;;;;-2.55;99.00293;94770.47;;;;
2022/01/08 02:16:40;;;;;;;5.1;3.2;;;;;;;-2.55;99.00293;94770.47;;;;
2022/01/08 02:17:40;;;;;;;5.1;3.2;;;;;;;-2.55;99.00293;94770.47;;;;
2022/01/08 02:18:41;;;;;;;4.35;3.15;;;;;;;-2.73;98.84766;94758.76;;;;
2022/01/08 02:19:43;;;;;;;4.35;3.15;;;;;;;-2.73;98.84766;94758.76;;;;
2022/01/08 02:20:43;;;;;;;4.35;3.15;;;;;;;-2.73;98.84766;94758.76;;;;
2022/01/08 02:21:44;;;;;;;4.35;3.15;;;;;;;-2.73;98.84766;94758.76;;;;
2022/01/08 02:22:48;;;;;;;4.35;3.15;;;;;;;-2.73;98.84766;94758.76;;;;
2022/01/08 02:23:48;;;;;;;4.35;3.15;;;;;;;-2.73;98.84766;94758.76;;;;
2022/01/08 02:24:49;;;;;;;4.35;3.15;;;;;;;-2.73;98.84766;94758.76;;;;
2022/01/08 02:25:50;;;;;;;4.35;3.15;;;;;;;-2.73;98.84766;94758.76;;;;
2022/01/08 02:26:51;;;;;;;4.35;3.15;;;;;;;-2.73;98.84766;94758.76;;;;
2022/01/08 02:27:51;;;;;;;4.35;3.15;;;;;;;-2.73;98.84766;94758.76;;;;
2022/01/08 02:28:53;;;;;;;5.9;3.15;;;;;;;-2.82;98.81543;94735.58;;;;
2022/01/08 02:29:53;;;;;;;5.9;3.15;;;;;;;-2.82;98.81543;94735.58;;;;
2022/01/08 02:30:54;;;;;;;5.9;3.15;;;;;;;-2.82;98.81543;94735.58;;;;
2022/01/08 02:31:54;;;;;;;5.9;3.15;;;;;;;-2.82;98.81543;94735.58;;;;
2022/01/08 02:32:58;;;;;;;5.9;3.15;;;;;;;-2.82;98.81543;94735.58;;;;
2022/01/08 02:34:01;;;;;;;5.9;3.15;;;;;;;-2.82;98.81543;94735.58;;;;
2022/01/08 02:35:02;;;;;;;5.9;3.15;;;;;;;-2.82;98.81543;94735.58;;;;
2022/01/08 02:36:03;;;;;;;5.9;3.15;;;;;;;-2.82;98.81543;94735.58;;;;
2022/01/08 02:37:05;;;;;;;5.9;3.15;;;;;;;-2.82;98.81543;94735.58;;;;
2022/01/08 02:38:07;;;;;;;5.9;3.15;;;;;;;-2.82;98.81543;94735.58;;;;
2022/01/08 02:39:07;;;;;;;5.9;3.15;;;;;;;-2.82;98.81543;94735.58;;;;
2022/01/08 02:40:08;;;;;;;4.7;3.4;;;;;;;-2.94;98.84082;94725.47;;;;
2022/01/08 02:41:09;;;;;;;4.7;3.4;;;;;;;-2.94;98.84082;94725.47;;;;
2022/01/08 02:42:11;;;;;;;4.7;3.4;;;;;;;-2.94;98.84082;94725.47;;;;
2022/01/08 02:43:13;;;;;;;4.7;3.4;;;;;;;-2.94;98.84082;94725.47;;;;
2022/01/08 02:44:13;;;;;;;4.7;3.4;;;;;;;-2.94;98.84082;94725.47;;;;
2022/01/08 02:45:14;;;;;;;4.7;3.4;;;;;;;-2.94;98.84082;94725.47;;;;
2022/01/08 02:46:15;;;;;;;4.7;3.4;;;;;;;-2.94;98.84082;94725.47;;;;
2022/01/08 02:47:16;;;;;;;4.7;3.4;;;;;;;-2.94;98.84082;94725.47;;;;
2022/01/08 02:48:17;;;;;;;4.7;3.4;;;;;;;-2.94;98.84082;94725.47;;;;
2022/01/08 02:49:18;;;;;;;4.7;3.4;;;;;;;-2.94;98.84082;94725.47;;;;
2022/01/08 02:50:18;;;;;;;5.150001;3.35;;;;;;;-2.99;98.8916;94700.9;;;;
2022/01/08 02:51:19;;;;;;;5.150001;3.35;;;;;;;-2.99;98.8916;94700.9;;;;
2022/01/08 02:52:20;;;;;;;5.150001;3.35;;;;;;;-2.99;98.8916;94700.9;;;;
2022/01/08 02:53:22;;;;;;;5.150001;3.35;;;;;;;-2.99;98.8916;94700.9;;;;
2022/01/08 02:54:23;;;;;;;5.150001;3.35;;;;;;;-2.99;98.8916;94700.9;;;;
2022/01/08 02:55:23;;;;;;;5.150001;3.35;;;;;;;-2.99;98.8916;94700.9;;;;
2022/01/08 02:56:24;;;;;;;5.150001;3.35;;;;;;;-2.99;98.8916;94700.9;;;;
2022/01/08 02:57:24;;;;;;;5.150001;3.35;;;;;;;-2.99;98.8916;94700.9;;;;
2022/01/08 02:58:28;;;;;;;5.150001;3.35;;;;;;;-2.99;98.8916;94700.9;;;;
2022/01/08 02:59:29;;;;;;;5.150001;3.35;;;;;;;-2.99;98.8916;94700.9;;;;
2022/01/08 03:00:30;;;;;;;5.150001;3.35;;;;;;;-2.99;98.8916;94700.9;;;;
2022/01/08 03:01:31;;;;;;;6.2;3.1;;;;;;;-3.03;98.63379;94683.82;;;;
2022/01/08 03:02:32;;;;;;;6.2;3.1;;;;;;;-3.03;98.63379;94683.82;;;;
2022/01/08 03:03:32;;;;;;;6.2;3.1;;;;;;;-3.03;98.63379;94683.82;;;;
2022/01/08 03:04:33;;;;;;;6.2;3.1;;;;;;;-3.03;98.63379;94683.82;;;;
2022/01/08 03:05:33;;;;;;;6.2;3.1;;;;;;;-3.03;98.63379;94683.82;;;;
2022/01/08 03:06:34;;;;;;;6.2;3.1;;;;;;;-3.03;98.63379;94683.82;;;;
2022/01/08 03:07:34;;;;;;;6.2;3.1;;;;;;;-3.03;98.63379;94683.82;;;;
2022/01/08 03:08:35;;;;;;;6.2;3.1;;;;;;;-3.03;98.63379;94683.82;;;;
2022/01/08 03:09:40;;;;;;;6.2;3.1;;;;;;;-3.03;98.63379;94683.82;;;;
2022/01/08 03:10:40;;;;;;;6.2;3.1;;;;;;;-3.03;98.63379;94683.82;;;;
2022/01/08 03:11:43;;;;;;;4.65;3.3;;;;;;;-3.12;98.25391;94668.98;;;;
2022/01/08 03:12:43;;;;;;;4.65;3.3;;;;;;;-3.12;98.25391;94668.98;;;;
2022/01/08 03:13:45;;;;;;;4.65;3.3;;;;;;;-3.12;98.25391;94668.98;;;;
2022/01/08 03:14:45;;;;;;;4.65;3.3;;;;;;;-3.12;98.25391;94668.98;;;;
2022/01/08 03:15:46;;;;;;;4.65;3.3;;;;;;;-3.12;98.25391;94668.98;;;;
2022/01/08 03:16:46;;;;;;;4.65;3.3;;;;;;;-3.12;98.25391;94668.98;;;;
2022/01/08 03:17:47;;;;;;;4.65;3.3;;;;;;;-3.12;98.25391;94668.98;;;;
2022/01/08 03:18:49;;;;;;;4.65;3.3;;;;;;;-3.12;98.25391;94668.98;;;;
2022/01/08 03:19:52;;;;;;;4.65;3.3;;;;;;;-3.12;98.25391;94668.98;;;;
2022/01/08 03:21:01;;;;;;;4.65;3.3;;;;;;;-3.12;98.25391;94668.98;;;;
2022/01/08 03:22:04;;;;;;;5.100001;3.55;;;;;;;-3.2;98.39844;94653.6;;;;
2022/01/08 03:23:11;;;;;;;5.100001;3.55;;;;;;;-3.2;98.39844;94653.6;;;;
2022/01/08 03:24:15;;;;;;;5.100001;3.55;;;;;;;-3.2;98.39844;94653.6;;;;
2022/01/08 03:25:16;;;;;;;5.100001;3.55;;;;;;;-3.2;98.39844;94653.6;;;;
2022/01/08 03:26:16;;;;;;;5.100001;3.55;;;;;;;-3.2;98.39844;94653.6;;;;
2022/01/08 03:27:19;;;;;;;5.100001;3.55;;;;;;;-3.2;98.39844;94653.6;;;;
2022/01/08 03:28:19;;;;;;;5.100001;3.55;;;;;;;-3.2;98.39844;94653.6;;;;
2022/01/08 03:29:19;;;;;;;5.100001;3.55;;;;;;;-3.2;98.39844;94653.6;;;;
2022/01/08 03:30:20;;;;;;;5.100001;3.55;;;;;;;-3.2;98.39844;94653.6;;;;
2022/01/08 03:31:21;;;;;;;5.100001;3.55;;;;;;;-3.2;98.39844;94653.6;;;;
2022/01/08 03:32:23;;;;;;;5.100001;3.55;;;;;;;-3.2;98.39844;94653.6;;;;
2022/01/08 03:33:24;;;;;;;7.2;4.15;;;;;;;-3.12;98.81934;94639.47;;;;
2022/01/08 03:34:24;;;;;;;7.2;4.15;;;;;;;-3.12;98.81934;94639.47;;;;
2022/01/08 03:35:25;;;;;;;7.2;4.15;;;;;;;-3.12;98.81934;94639.47;;;;
2022/01/08 03:36:26;;;;;;;7.2;4.15;;;;;;;-3.12;98.81934;94639.47;;;;
2022/01/08 03:37:26;;;;;;;7.2;4.15;;;;;;;-3.12;98.81934;94639.47;;;;
2022/01/08 03:38:27;;;;;;;7.2;4.15;;;;;;;-3.12;98.81934;94639.47;;;;
2022/01/08 03:39:27;;;;;;;7.2;4.15;;;;;;;-3.12;98.81934;94639.47;;;;
2022/01/08 03:40:28;;;;;;;7.2;4.15;;;;;;;-3.12;98.81934;94639.47;;;;
2022/01/08 03:41:28;;;;;;;7.2;4.15;;;;;;;-3.12;98.81934;94639.47;;;;
2022/01/08 03:42:29;;;;;;;7.2;4.15;;;;;;;-3.12;98.81934;94639.47;;;;
2022/01/08 03:43:30;;;;;;;5.050001;3.8;;;;;;;-2.97;99.08105;94616.66;;;;
2022/01/08 03:44:30;;;;;;;5.050001;3.8;;;;;;;-2.97;99.08105;94616.66;;;;
2022/01/08 03:45:31;;;;;;;5.050001;3.8;;;;;;;-2.97;99.08105;94616.66;;;;
2022/01/08 03:46:35;;;;;;;5.050001;3.8;;;;;;;-2.97;99.08105;94616.66;;;;
2022/01/08 03:47:54;;;;;;;5.050001;3.8;;;;;;;-2.97;99.08105;94616.66;;;;
2022/01/08 03:49:13;;;;;;;5.050001;3.8;;;;;;;-2.97;99.08105;94616.66;;;;
2022/01/08 03:50:13;;;;;;;5.050001;3.8;;;;;;;-2.97;99.08105;94616.66;;;;
2022/01/08 03:51:14;;;;;;;5.050001;3.8;;;;;;;-2.97;99.08105;94616.66;;;;
2022/01/08 03:52:15;;;;;;;5.050001;3.8;;;;;;;-2.97;99.08105;94616.66;;;;
2022/01/08 03:53:16;;;;;;;5.050001;3.8;;;;;;;-2.97;99.08105;94616.66;;;;
2022/01/08 03:54:16;;;;;;;5.55;4.3;;;;;;;-2.86;99.16699;94610.17;;;;
2022/01/08 03:55:17;;;;;;;5.55;4.3;;;;;;;-2.86;99.16699;94610.17;;;;
2022/01/08 03:56:17;;;;;;;5.55;4.3;;;;;;;-2.86;99.16699;94610.17;;;;
2022/01/08 03:57:18;;;;;;;5.55;4.3;;;;;;;-2.86;99.16699;94610.17;;;;
2022/01/08 03:58:19;;;;;;;5.55;4.3;;;;;;;-2.86;99.16699;94610.17;;;;
2022/01/08 03:59:19;;;;;;;5.55;4.3;;;;;;;-2.86;99.16699;94610.17;;;;
2022/01/08 04:00:20;;;;;;;5.55;4.3;;;;;;;-2.86;99.16699;94610.17;;;;
2022/01/08 04:01:20;;;;;;;5.55;4.3;;;;;;;-2.86;99.16699;94610.17;;;;
2022/01/08 04:02:21;;;;;;;5.55;4.3;;;;;;;-2.86;99.16699;94610.17;;;;
2022/01/08 04:03:21;;;;;;;5.55;4.3;;;;;;;-2.86;99.16699;94610.17;;;;
2022/01/08 04:04:22;;;;;;;5.55;4.3;;;;;;;-2.86;99.16699;94610.17;;;;
2022/01/08 04:05:23;;;;;;;4.6;3.3;;;;;;;-2.74;99.70215;94592.46;;;;
2022/01/08 04:06:23;;;;;;;4.6;3.3;;;;;;;-2.74;99.70215;94592.46;;;;
2022/01/08 04:07:24;;;;;;;4.6;3.3;;;;;;;-2.74;99.70215;94592.46;;;;
2022/01/08 04:08:24;;;;;;;4.6;3.3;;;;;;;-2.74;99.70215;94592.46;;;;
2022/01/08 04:09:25;;;;;;;4.6;3.3;;;;;;;-2.74;99.70215;94592.46;;;;
2022/01/08 04:10:25;;;;;;;4.6;3.3;;;;;;;-2.74;99.70215;94592.46;;;;
2022/01/08 04:11:26;;;;;;;4.6;3.3;;;;;;;-2.74;99.70215;94592.46;;;;
2022/01/08 04:12:34;;;;;;;4.6;3.3;;;;;;;-2.74;99.70215;94592.46;;;;
2022/01/08 04:13:38;;;;;;;4.6;3.3;;;;;;;-2.74;99.70215;94592.46;;;;
2022/01/08 04:14:51;;;;;;;4.6;3.3;;;;;;;-2.74;99.70215;94592.46;;;;
2022/01/08 04:15:55;;;;;;;3.85;2.8;;;;;;;-2.64;99.47461;94573.35;;;;
2022/01/08 04:16:56;;;;;;;3.85;2.8;;;;;;;-2.64;99.47461;94573.35;;;;
2022/01/08 04:17:56;;;;;;;3.85;2.8;;;;;;;-2.64;99.47461;94573.35;;;;
2022/01/08 04:18:57;;;;;;;3.85;2.8;;;;;;;-2.64;99.47461;94573.35;;;;
2022/01/08 04:19:58;;;;;;;3.85;2.8;;;;;;;-2.64;99.47461;94573.35;;;;
2022/01/08 04:21:17;;;;;;;3.85;2.8;;;;;;;-2.64;99.47461;94573.35;;;;
2022/01/08 04:22:17;;;;;;;3.85;2.8;;;;;;;-2.64;99.47461;94573.35;;;;
2022/01/08 04:23:21;;;;;;;3.85;2.8;;;;;;;-2.64;99.47461;94573.35;;;;
2022/01/08 04:24:21;;;;;;;3.85;2.8;;;;;;;-2.64;99.47461;94573.35;;;;
2022/01/08 04:25:22;;;;;;;3.85;2.8;;;;;;;-2.64;99.47461;94573.35;;;;
2022/01/08 04:26:24;;;;;;;6.15;2.9;;;;;;;-2.56;99.83691;94567.5;;;;
2022/01/08 04:27:25;;;;;;;6.15;2.9;;;;;;;-2.56;99.83691;94567.5;;;;
2022/01/08 04:28:25;;;;;;;6.15;2.9;;;;;;;-2.56;99.83691;94567.5;;;;
2022/01/08 04:29:26;;;;;;;6.15;2.9;;;;;;;-2.56;99.83691;94567.5;;;;
2022/01/08 04:30:27;;;;;;;6.15;2.9;;;;;;;-2.56;99.83691;94567.5;;;;
2022/01/08 04:31:27;;;;;;;6.15;2.9;;;;;;;-2.56;99.83691;94567.5;;;;
2022/01/08 04:32:27;;;;;;;6.15;2.9;;;;;;;-2.56;99.83691;94567.5;;;;
2022/01/08 04:33:28;;;;;;;6.15;2.9;;;;;;;-2.56;99.83691;94567.5;;;;
2022/01/08 04:34:29;;;;;;;6.15;2.9;;;;;;;-2.56;99.83691;94567.5;;;;
2022/01/08 04:35:29;;;;;;;6.15;2.9;;;;;;;-2.56;99.83691;94567.5;;;;
2022/01/08 04:36:30;;;;;;;6.15;2.9;;;;;;;-2.56;99.83691;94567.5;;;;
2022/01/08 04:37:30;;;;;;;4.199999;2.25;;;;;;;-2.47;99.89746;94554.57;;;;
2022/01/08 04:38:32;;;;;;;4.199999;2.25;;;;;;;-2.47;99.89746;94554.57;;;;
2022/01/08 04:39:33;;;;;;;4.199999;2.25;;;;;;;-2.47;99.89746;94554.57;;;;
2022/01/08 04:40:33;;;;;;;4.199999;2.25;;;;;;;-2.47;99.89746;94554.57;;;;
2022/01/08 04:41:34;;;;;;;4.199999;2.25;;;;;;;-2.47;99.89746;94554.57;;;;
2022/01/08 04:42:34;;;;;;;4.199999;2.25;;;;;;;-2.47;99.89746;94554.57;;;;
2022/01/08 04:43:37;;;;;;;4.199999;2.25;;;;;;;-2.47;99.89746;94554.57;;;;
2022/01/08 04:44:38;;;;;;;4.199999;2.25;;;;;;;-2.47;99.89746;94554.57;;;;
2022/01/08 04:45:39;;;;;;;4.199999;2.25;;;;;;;-2.47;99.89746;94554.57;;;;
2022/01/08 04:46:41;;;;;;;4.199999;2.25;;;;;;;-2.47;99.89746;94554.57;;;;
2022/01/08 04:47:41;;;;;;;3.65;1.9;;;;;;;-2.21;100;94546.69;;;;
2022/01/08 04:48:42;;;;;;;3.65;1.9;;;;;;;-2.21;100;94546.69;;;;
2022/01/08 04:49:42;;;;;;;3.65;1.9;;;;;;;-2.21;100;94546.69;;;;
2022/01/08 04:50:43;;;;;;;3.65;1.9;;;;;;;-2.21;100;94546.69;;;;
2022/01/08 04:51:44;;;;;;;3.65;1.9;;;;;;;-2.21;100;94546.69;;;;
2022/01/08 04:52:44;;;;;;;3.65;1.9;;;;;;;-2.21;100;94546.69;;;;
2022/01/08 04:53:45;;;;;;;3.65;1.9;;;;;;;-2.21;100;94546.69;;;;
2022/01/08 04:54:45;;;;;;;3.65;1.9;;;;;;;-2.21;100;94546.69;;;;
2022/01/08 04:55:45;;;;;;;3.65;1.9;;;;;;;-2.21;100;94546.69;;;;
2022/01/08 04:56:46;;;;;;;3.65;1.9;;;;;;;-2.21;100;94546.69;;;;
2022/01/08 04:57:46;;;;;;;3.65;1.9;;;;;;;-2.21;100;94546.69;;;;
2022/01/08 04:58:47;;;;;;;2;1.8;;;;;;;-1.91;99.9248;94580.68;;;;
2022/01/08 04:59:48;;;;;;;2;1.8;;;;;;;-1.91;99.9248;94580.68;;;;
2022/01/08 05:00:48;;;;;;;2;1.8;;;;;;;-1.91;99.9248;94580.68;;;;
2022/01/08 05:01:49;;;;;;;2;1.8;;;;;;;-1.91;99.9248;94580.68;;;;
2022/01/08 05:02:49;;;;;;;2;1.8;;;;;;;-1.91;99.9248;94580.68;;;;
2022/01/08 05:03:50;;;;;;;2;1.8;;;;;;;-1.91;99.9248;94580.68;;;;
2022/01/08 05:04:51;;;;;;;2;1.8;;;;;;;-1.91;99.9248;94580.68;;;;
2022/01/08 05:05:51;;;;;;;2;1.8;;;;;;;-1.91;99.9248;94580.68;;;;
2022/01/08 05:06:52;;;;;;;2;1.8;;;;;;;-1.91;99.9248;94580.68;;;;
2022/01/08 05:07:52;;;;;;;2;1.8;;;;;;;-1.91;99.9248;94580.68;;;;
2022/01/08 05:08:53;;;;;;;1.5;1.3;;;;;;;-1.61;100;94625.57;;;;
2022/01/08 05:09:53;;;;;;;1.5;1.3;;;;;;;-1.61;100;94625.57;;;;
2022/01/08 05:10:54;;;;;;;1.5;1.3;;;;;;;-1.61;100;94625.57;;;;
2022/01/08 05:11:55;;;;;;;1.5;1.3;;;;;;;-1.61;100;94625.57;;;;
2022/01/08 05:12:55;;;;;;;1.5;1.3;;;;;;;-1.61;100;94625.57;;;;
2022/01/08 05:13:56;;;;;;;1.5;1.3;;;;;;;-1.61;100;94625.57;;;;
2022/01/08 05:14:57;;;;;;;1.5;1.3;;;;;;;-1.61;100;94625.57;;;;
2022/01/08 05:15:59;;;;;;;1.5;1.3;;;;;;;-1.61;100;94625.57;;;;
2022/01/08 05:17:01;;;;;;;1.5;1.3;;;;;;;-1.61;100;94625.57;;;;
2022/01/08 05:18:04;;;;;;;1.5;1.3;;;;;;;-1.61;100;94625.57;;;;
2022/01/08 05:19:04;;;;;;;1.5;1.3;;;;;;;-1.61;100;94625.57;;;;
2022/01/08 05:20:05;;;;;;;1.4;1.3;;;;;;;-1.24;99.70996;94606.18;;;;
2022/01/08 05:21:16;;;;;;;1.4;1.3;;;;;;;-1.24;99.70996;94606.18;;;;
2022/01/08 05:22:23;;;;;;;1.4;1.3;;;;;;;-1.24;99.70996;94606.18;;;;
2022/01/08 05:23:23;;;;;;;1.4;1.3;;;;;;;-1.24;99.70996;94606.18;;;;
2022/01/08 05:24:25;;;;;;;1.4;1.3;;;;;;;-1.24;99.70996;94606.18;;;;
2022/01/08 05:25:26;;;;;;;1.4;1.3;;;;;;;-1.24;99.70996;94606.18;;;;
2022/01/08 05:26:28;;;;;;;1.4;1.3;;;;;;;-1.24;99.70996;94606.18;;;;
2022/01/08 05:27:28;;;;;;;1.4;1.3;;;;;;;-1.24;99.70996;94606.18;;;;
2022/01/08 05:28:29;;;;;;;1.4;1.3;;;;;;;-1.24;99.70996;94606.18;;;;
2022/01/08 05:29:30;;;;;;;1.4;1.3;;;;;;;-1.24;99.70996;94606.18;;;;
2022/01/08 05:30:30;;;;;;;1.2;1.1;;;;;;;-0.97;99.33984;94590.99;;;;
2022/01/08 05:31:31;;;;;;;1.2;1.1;;;;;;;-0.97;99.33984;94590.99;;;;
2022/01/08 05:32:31;;;;;;;1.2;1.1;;;;;;;-0.97;99.33984;94590.99;;;;
2022/01/08 05:33:32;;;;;;;1.2;1.1;;;;;;;-0.97;99.33984;94590.99;;;;
2022/01/08 05:34:33;;;;;;;1.2;1.1;;;;;;;-0.97;99.33984;94590.99;;;;
2022/01/08 05:35:34;;;;;;;1.2;1.1;;;;;;;-0.97;99.33984;94590.99;;;;
2022/01/08 05:36:34;;;;;;;1.2;1.1;;;;;;;-0.97;99.33984;94590.99;;;;
2022/01/08 05:37:35;;;;;;;1.2;1.1;;;;;;;-0.97;99.33984;94590.99;;;;
2022/01/08 05:38:35;;;;;;;1.2;1.1;;;;;;;-0.97;99.33984;94590.99;;;;
2022/01/08 05:39:36;;;;;;;1.2;1.1;;;;;;;-0.97;99.33984;94590.99;;;;
2022/01/08 05:40:37;;;;;;;1.2;1.1;;;;;;;-0.97;99.33984;94590.99;;;;
2022/01/08 05:41:38;;;;;;;1.45;1.3;;;;;;;-0.79;99.29688;94576.06;;;;
2022/01/08 05:42:38;;;;;;;1.45;1.3;;;;;;;-0.79;99.29688;94576.06;;;;
2022/01/08 05:43:39;;;;;;;1.45;1.3;;;;;;;-0.79;99.29688;94576.06;;;;
2022/01/08 05:44:39;;;;;;;1.45;1.3;;;;;;;-0.79;99.29688;94576.06;;;;
2022/01/08 05:45:40;;;;;;;1.45;1.3;;;;;;;-0.79;99.29688;94576.06;;;;
2022/01/08 05:46:44;;;;;;;1.45;1.3;;;;;;;-0.79;99.29688;94576.06;;;;
2022/01/08 05:47:45;;;;;;;1.45;1.3;;;;;;;-0.79;99.29688;94576.06;;;;
2022/01/08 05:48:45;;;;;;;1.45;1.3;;;;;;;-0.79;99.29688;94576.06;;;;
2022/01/08 05:49:46;;;;;;;1.45;1.3;;;;;;;-0.79;99.29688;94576.06;;;;
2022/01/08 05:50:46;;;;;;;1.45;1.3;;;;;;;-0.79;99.29688;94576.06;;;;
2022/01/08 05:51:47;;;;;;;1.7;1;;;;;;;-0.69;99.35449;94595.56;;;;
2022/01/08 05:52:48;;;;;;;1.7;1;;;;;;;-0.69;99.35449;94595.56;;;;
2022/01/08 05:53:49;;;;;;;1.7;1;;;;;;;-0.69;99.35449;94595.56;;;;
2022/01/08 05:54:49;;;;;;;1.7;1;;;;;;;-0.69;99.35449;94595.56;;;;
2022/01/08 05:55:50;;;;;;;1.7;1;;;;;;;-0.69;99.35449;94595.56;;;;
2022/01/08 05:56:51;;;;;;;1.7;1;;;;;;;-0.69;99.35449;94595.56;;;;
2022/01/08 05:57:52;;;;;;;1.7;1;;;;;;;-0.69;99.35449;94595.56;;;;
2022/01/08 05:58:52;;;;;;;1.7;1;;;;;;;-0.69;99.35449;94595.56;;;;
2022/01/08 05:59:53;;;;;;;1.7;1;;;;;;;-0.69;99.35449;94595.56;;;;
2022/01/08 06:00:53;;;;;;;1.7;1;;;;;;;-0.69;99.35449;94595.56;;;;
2022/01/08 06:01:54;;;;;;;1.7;1;;;;;;;-0.69;99.35449;94595.56;;;;
2022/01/08 06:02:55;;;;;;;1.15;1.05;;;;;;;-0.59;99.76953;94595.17;;;;
2022/01/08 06:03:56;;;;;;;1.15;1.05;;;;;;;-0.59;99.76953;94595.17;;;;
2022/01/08 06:04:56;;;;;;;1.15;1.05;;;;;;;-0.59;99.76953;94595.17;;;;
2022/01/08 06:05:57;;;;;;;1.15;1.05;;;;;;;-0.59;99.76953;94595.17;;;;
2022/01/08 06:06:57;;;;;;;1.15;1.05;;;;;;;-0.59;99.76953;94595.17;;;;
2022/01/08 06:07:58;;;;;;;1.15;1.05;;;;;;;-0.59;99.76953;94595.17;;;;
2022/01/08 06:08:59;;;;;;;1.15;1.05;;;;;;;-0.59;99.76953;94595.17;;;;